Time;durP1;ratioP1;P1;durP2;ratioP2;P2;SDS_P1;SDS_P2;PMS_P1;PMS_P2;Temp;Humidity;BMP_temperature;BMP_pressure;BME280_temperature;BME280_humidity;BME280_pressure;Samples;Min_cycle;Max_cycle;Signal;HPM_P1;HPM_P2
2024/01/15 00:00:50;;;;;;;;;89.33;64.67;;;;;0.16;100.00;98348.06;6304672;20;3642975;-46
2024/01/15 00:03:19;;;;;;;;;89.33;68.33;;;;;0.18;100.00;98341.78;6305728;20;3645048;-45
2024/01/15 00:05:49;;;;;;;;;86.67;68.67;;;;;-0.02;100.00;98339.13;6304182;20;2883766;-47
2024/01/15 00:08:19;;;;;;;;;84.33;61.33;;;;;0.30;100.00;98335.13;6306285;20;3649261;-47
2024/01/15 00:10:48;;;;;;;;;89.00;65.67;;;;;-0.22;100.00;98326.72;6307198;20;3659672;-46
2024/01/15 00:13:18;;;;;;;;;99.67;74.67;;;;;-0.02;100.00;98323.28;6305960;20;3668056;-48
2024/01/15 00:15:48;;;;;;;;;98.33;68.33;;;;;-0.57;100.00;98314.94;6306184;20;3655589;-48
2024/01/15 00:18:17;;;;;;;;;88.67;64.67;;;;;-0.12;100.00;98306.97;6301393;20;3682574;-46
2024/01/15 00:20:47;;;;;;;;;88.33;67.67;;;;;-0.51;100.00;98298.84;6304600;20;3641945;-46
2024/01/15 00:23:17;;;;;;;;;86.67;66.00;;;;;-0.34;100.00;98303.44;6304333;20;3649346;-50
2024/01/15 00:25:47;;;;;;;;;92.33;66.67;;;;;0.06;100.00;98302.72;6305528;20;3641967;-46
2024/01/15 00:28:16;;;;;;;;;96.00;72.67;;;;;-0.50;100.00;98304.09;6302246;20;3650283;-49
2024/01/15 00:30:46;;;;;;;;;94.67;69.67;;;;;-0.35;100.00;98304.38;6302657;20;3652430;-46
2024/01/15 00:33:14;;;;;;;;;73.00;62.50;;;;;-0.37;100.00;98298.31;6301146;20;2500886;-47
2024/01/15 00:35:44;;;;;;;;;81.33;59.33;;;;;-0.19;100.00;98286.16;6274587;20;2883715;-47
2024/01/15 00:38:13;;;;;;;;;93.00;70.00;;;;;-0.37;100.00;98290.41;6303728;20;2776350;-46
2024/01/15 00:40:42;;;;;;;;;96.67;69.67;;;;;0.07;100.00;98280.66;6268293;20;3647112;-49
2024/01/15 00:43:12;;;;;;;;;90.33;69.00;;;;;0.31;100.00;98276.13;6305849;20;3632621;-46
2024/01/15 00:45:42;;;;;;;;;87.67;67.00;;;;;-0.13;100.00;98278.00;6312486;20;3635674;-47
2024/01/15 00:48:10;;;;;;;;;83.50;64.00;;;;;-0.12;100.00;98274.44;6308370;20;2500280;-47
2024/01/15 00:50:39;;;;;;;;;87.67;65.00;;;;;-0.53;100.00;98283.09;6279383;20;3653421;-45
2024/01/15 00:53:08;;;;;;;;;79.00;61.00;;;;;-0.40;100.00;98270.28;6310120;20;2880522;-47
2024/01/15 00:55:38;;;;;;;;;96.33;69.33;;;;;-0.28;100.00;98272.44;6277658;20;3659673;-46
2024/01/15 00:58:07;;;;;;;;;99.33;71.33;;;;;-0.46;100.00;98260.00;6310496;20;3669062;-47
2024/01/15 01:00:37;;;;;;;;;104.00;75.33;;;;;-0.35;100.00;98256.94;6308201;20;3673241;-46
2024/01/15 01:03:08;;;;;;;;;96.67;68.67;;;;;-0.32;100.00;98249.72;6276028;20;2895169;-49
2024/01/15 01:05:38;;;;;;;;;110.67;81.00;;;;;0.21;100.00;98254.56;6309893;20;3696115;-46
2024/01/15 01:08:07;;;;;;;;;107.67;90.67;;;;;-0.07;100.00;98259.28;6276254;20;3681543;-48
2024/01/15 01:10:37;;;;;;;;;95.33;71.33;;;;;-0.44;100.00;98250.25;6278086;20;3652449;-49
2024/01/15 01:13:07;;;;;;;;;98.67;75.00;;;;;-0.10;100.00;98247.09;6307621;20;3645078;-47
2024/01/15 01:15:38;;;;;;;;;91.67;69.67;;;;;-0.05;100.00;98239.84;6307764;20;3643023;-46
2024/01/15 01:18:08;;;;;;;;;90.67;71.00;;;;;0.13;100.00;98229.41;6307859;20;2889104;-48
2024/01/15 01:20:38;;;;;;;;;96.67;70.67;;;;;-0.18;100.00;98221.97;6306724;20;2893246;-47
2024/01/15 01:23:08;;;;;;;;;88.33;69.00;;;;;0.04;100.00;98222.75;6310350;20;3641983;-45
2024/01/15 01:25:37;;;;;;;;;95.33;71.00;;;;;-0.27;100.00;98213.50;6309721;20;3664873;-47
2024/01/15 01:28:07;;;;;;;;;95.00;72.00;;;;;0.09;100.00;98210.22;6307910;20;3656600;-46
2024/01/15 01:30:37;;;;;;;;;175.00;144.00;;;;;0.11;100.00;98208.38;6310671;20;3719127;-48
2024/01/15 01:33:07;;;;;;;;;113.67;97.33;;;;;-0.49;100.00;98213.53;6276547;20;3696123;-45
2024/01/15 01:35:38;;;;;;;;;109.33;87.33;;;;;-0.21;100.00;98207.13;6274717;20;3693060;-48
2024/01/15 01:38:07;;;;;;;;;90.00;65.33;;;;;0.25;100.00;98204.28;6276757;20;3643010;-46
2024/01/15 01:40:37;;;;;;;;;99.67;71.33;;;;;-0.18;100.00;98190.31;6309966;20;3649375;-46
2024/01/15 01:43:08;;;;;;;;;100.67;77.00;;;;;-0.10;100.00;98182.94;6307528;20;3671162;-46
2024/01/15 01:45:39;;;;;;;;;137.00;115.25;;;;;-0.12;100.00;98182.97;6275984;20;3731612;-46
2024/01/15 01:48:09;;;;;;;;;121.00;92.67;;;;;-0.29;100.00;98188.97;6303364;20;3697194;-47
2024/01/15 01:50:40;;;;;;;;;142.50;111.50;;;;;0.14;100.00;98192.41;6276056;20;3723361;-46
2024/01/15 01:53:09;;;;;;;;;117.33;87.67;;;;;0.04;100.00;98193.75;6274923;20;3688825;-45
2024/01/15 01:55:39;;;;;;;;;98.33;73.00;;;;;0.36;100.00;98197.59;6269803;20;3667053;-47
2024/01/15 01:58:09;;;;;;;;;109.67;87.00;;;;;-0.12;100.00;98190.03;6309709;20;3702371;-48
2024/01/15 02:00:40;;;;;;;;;130.50;106.50;;;;;0.34;100.00;98185.38;6274962;20;3717018;-48
2024/01/15 02:03:10;;;;;;;;;102.67;72.00;;;;;-0.38;100.00;98172.69;6308211;20;3687813;-47
2024/01/15 02:05:41;;;;;;;;;97.00;74.00;;;;;-0.01;100.00;98174.59;6276563;20;3650400;-45
2024/01/15 02:08:10;;;;;;;;;95.00;72.00;;;;;0.07;100.00;98172.50;6307001;20;3653405;-46
2024/01/15 02:10:40;;;;;;;;;96.67;71.00;;;;;-0.07;100.00;98166.97;6306443;20;3655493;-47
2024/01/15 02:13:10;;;;;;;;;96.67;70.33;;;;;0.09;100.00;98160.09;6305803;20;3653555;-45
2024/01/15 02:15:40;;;;;;;;;95.67;72.00;;;;;-0.03;100.00;98160.63;6307293;20;3638821;-47
2024/01/15 02:18:09;;;;;;;;;92.00;67.00;;;;;-0.01;100.00;98151.72;6306785;20;2783682;-46
2024/01/15 02:20:39;;;;;;;;;101.33;70.33;;;;;-0.76;100.00;98133.81;6274682;20;3673396;-46
2024/01/15 02:23:16;;;;;;;;;100.33;72.00;;;;;-0.84;100.00;98137.66;6307754;20;3672292;-50
2024/01/15 02:25:47;;;;;;;;;90.67;66.33;;;;;-1.05;100.00;98123.56;6305888;20;3659607;-48
2024/01/15 02:28:18;;;;;;;;;98.00;72.00;;;;;-1.12;100.00;98133.50;6304732;20;3658590;-46
2024/01/15 02:30:48;;;;;;;;;99.67;75.00;;;;;-1.50;100.00;98129.72;6305739;20;3659127;-49
2024/01/15 02:33:18;;;;;;;;;90.33;67.33;;;;;-1.38;100.00;98145.91;6304223;20;3657673;-47
2024/01/15 02:35:49;;;;;;;;;93.33;66.33;;;;;-1.43;100.00;98139.94;6308463;20;3652414;-48
2024/01/15 02:38:19;;;;;;;;;96.50;72.00;;;;;-1.35;100.00;98142.28;6307199;20;2881644;-45
2024/01/15 02:40:49;;;;;;;;;95.33;69.33;;;;;-1.63;100.00;98142.50;6275800;20;3666976;-47
2024/01/15 02:43:19;;;;;;;;;90.33;59.00;;;;;-1.68;100.00;98145.28;6308021;20;3664983;-47
2024/01/15 02:45:48;;;;;;;;;91.67;67.67;;;;;-1.58;100.00;98138.78;6306101;20;3658616;-47
2024/01/15 02:48:18;;;;;;;;;88.67;63.67;;;;;-1.36;100.00;98140.59;6306664;20;3658737;-49
2024/01/15 02:50:48;;;;;;;;;107.33;75.33;;;;;-1.52;100.00;98123.69;6304020;20;3666941;-46
2024/01/15 02:53:18;;;;;;;;;97.00;73.00;;;;;-1.59;100.00;98123.03;6301758;20;3654466;-46
2024/01/15 02:55:47;;;;;;;;;101.33;72.67;;;;;-1.47;100.00;98103.31;6299303;20;3668010;-47
2024/01/15 02:58:17;;;;;;;;;99.00;69.00;;;;;-1.47;100.00;98104.16;6302829;20;3675384;-47
2024/01/15 03:00:47;;;;;;;;;96.67;73.67;;;;;-1.50;100.00;98091.13;6301804;20;3651316;-46
2024/01/15 03:03:17;;;;;;;;;97.67;71.33;;;;;-1.13;100.00;98111.59;6300493;20;3661726;-46
2024/01/15 03:05:47;;;;;;;;;109.33;78.33;;;;;-1.16;100.00;98106.44;6303103;20;3682500;-48
2024/01/15 03:08:17;;;;;;;;;101.33;75.33;;;;;-1.32;100.00;98094.78;6274262;20;3657530;-46
2024/01/15 03:10:46;;;;;;;;;109.00;89.00;;;;;-1.90;100.00;98089.13;6305145;20;3665870;-47
2024/01/15 03:13:16;;;;;;;;;106.67;75.33;;;;;-1.22;100.00;98085.59;6303722;20;3674384;-48
2024/01/15 03:15:46;;;;;;;;;103.33;75.00;;;;;-1.70;100.00;98076.09;6307752;20;3662768;-47
2024/01/15 03:18:15;;;;;;;;;100.67;72.00;;;;;-2.29;100.00;98081.75;6306320;20;3694037;-46
2024/01/15 03:20:45;;;;;;;;;114.33;81.00;;;;;-1.34;100.00;98097.50;6303595;20;3683579;-47
2024/01/15 03:23:15;;;;;;;;;93.67;67.67;;;;;-1.35;100.00;98090.50;6273873;20;3654429;-45
2024/01/15 03:25:44;;;;;;;;;89.67;60.33;;;;;-2.35;100.00;98085.47;6303675;20;3663780;-46
2024/01/15 03:28:14;;;;;;;;;103.33;75.67;;;;;-2.09;100.00;98087.16;6306623;20;3672232;-46
2024/01/15 03:30:44;;;;;;;;;95.33;70.33;;;;;-2.14;100.00;98081.22;6272198;20;3658596;-47
2024/01/15 03:33:13;;;;;;;;;102.33;75.67;;;;;-2.52;100.00;98083.44;6303131;20;3647142;-46
2024/01/15 03:35:42;;;;;;;;;99.50;76.00;;;;;-2.39;100.00;98077.78;6307303;20;2888824;-46
2024/01/15 03:38:12;;;;;;;;;102.33;75.00;;;;;-2.37;100.00;98075.94;6274564;20;3662876;-48
2024/01/15 03:40:42;;;;;;;;;109.00;79.00;;;;;-1.62;100.00;98078.44;6272931;20;3673164;-46
2024/01/15 03:43:12;;;;;;;;;94.33;66.33;;;;;-2.59;100.00;98081.94;6305144;20;3670041;-45
2024/01/15 03:45:41;;;;;;;;;104.33;76.67;;;;;-2.44;100.00;98081.41;6307627;20;3663816;-45
2024/01/15 03:48:11;;;;;;;;;102.00;74.00;;;;;-2.25;100.00;98078.13;6303557;20;3684627;-47
2024/01/15 03:50:41;;;;;;;;;91.00;63.67;;;;;-2.36;100.00;98069.78;6305509;20;3675290;-45
2024/01/15 03:53:11;;;;;;;;;112.67;79.00;;;;;-2.71;100.00;98072.72;6304270;20;3675375;-45
2024/01/15 03:55:42;;;;;;;;;112.33;81.33;;;;;-2.14;100.00;98060.19;6303726;20;3686768;-46
2024/01/15 03:58:11;;;;;;;;;114.33;84.67;;;;;-2.21;100.00;98067.47;6270889;20;3692964;-49
2024/01/15 04:00:42;;;;;;;;;112.00;85.67;;;;;-2.10;100.00;98069.69;6269080;20;3690877;-45
2024/01/15 04:03:12;;;;;;;;;93.67;68.33;;;;;-1.79;100.00;98069.41;6267287;20;3662754;-48
2024/01/15 04:05:42;;;;;;;;;92.67;69.00;;;;;-1.60;100.00;98055.56;6305928;20;3642996;-47
2024/01/15 04:08:11;;;;;;;;;108.33;78.67;;;;;-2.14;100.00;98064.59;6307032;20;3673165;-46
2024/01/15 04:10:41;;;;;;;;;104.33;72.00;;;;;-1.75;100.00;98059.63;6303246;20;3671084;-46
2024/01/15 04:13:11;;;;;;;;;115.00;94.00;;;;;-2.13;100.00;98050.53;6304666;20;3688081;-47
2024/01/15 04:15:41;;;;;;;;;117.00;92.33;;;;;-1.72;100.00;98043.72;6272824;20;3679444;-46
2024/01/15 04:18:10;;;;;;;;;110.33;79.00;;;;;-2.29;100.00;98037.09;6274882;20;3669017;-47
2024/01/15 04:20:40;;;;;;;;;113.33;83.33;;;;;-1.77;100.00;98045.66;6310885;20;3682552;-45
2024/01/15 04:23:10;;;;;;;;;109.67;82.67;;;;;-1.55;100.00;98041.28;6277675;20;3689970;-47
2024/01/15 04:25:42;;;;;;;;;104.33;72.00;;;;;-1.84;100.00;98052.09;6276549;20;3694036;-48
2024/01/15 04:28:12;;;;;;;;;113.00;86.67;;;;;-2.26;100.00;98058.03;6277040;20;3687783;-47
2024/01/15 04:30:41;;;;;;;;;73.20;47.40;;;;;-2.14;100.00;98052.28;6272099;20;3622141;-49
2024/01/15 04:33:11;;;;;;;;;99.00;72.67;;;;;-2.49;100.00;98045.69;6276966;20;3673736;-46
2024/01/15 04:35:41;;;;;;;;;97.00;68.33;;;;;-2.42;100.00;98047.19;6307863;20;3669074;-46
2024/01/15 04:38:11;;;;;;;;;95.33;69.67;;;;;-2.92;100.00;98042.78;6309423;20;2902609;-46
2024/01/15 04:40:40;;;;;;;;;91.00;66.33;;;;;-2.92;100.00;98028.81;6310304;20;2898464;-45
2024/01/15 04:43:10;;;;;;;;;93.00;69.00;;;;;-2.41;100.00;98027.88;6306548;20;3660790;-47
2024/01/15 04:45:40;;;;;;;;;91.33;67.33;;;;;-2.37;100.00;98031.25;6310734;20;2894104;-45
2024/01/15 04:48:09;;;;;;;;;102.00;74.00;;;;;-2.79;100.00;98005.59;6310982;20;3670075;-47
2024/01/15 04:50:39;;;;;;;;;94.00;67.00;;;;;-2.09;100.00;98028.47;6309768;20;3671242;-46
2024/01/15 04:53:09;;;;;;;;;90.00;67.33;;;;;-2.41;100.00;98024.41;6310565;20;2900389;-46
2024/01/15 04:55:41;;;;;;;;;82.67;57.67;;;;;-2.81;100.00;98012.69;6309249;20;2891942;-46
2024/01/15 04:58:37;;;;;;;;;99.00;72.67;;;;;-2.28;100.00;98017.78;6308230;20;3673417;-46
2024/01/15 05:01:09;;;;;;;;;88.00;70.33;;;;;-2.47;100.00;98026.34;6305709;20;2880697;-48
2024/01/15 05:03:39;;;;;;;;;101.67;76.67;;;;;-2.32;100.00;98030.16;6309202;20;3661724;-48
2024/01/15 05:06:09;;;;;;;;;98.33;70.00;;;;;-2.58;100.00;98025.88;6309757;20;3657684;-46
2024/01/15 05:08:39;;;;;;;;;100.00;73.67;;;;;-2.79;100.00;98032.72;6307490;20;3665904;-51
2024/01/15 05:11:09;;;;;;;;;105.00;71.67;;;;;-2.33;100.00;98024.97;6308595;20;3667977;-48
2024/01/15 05:13:38;;;;;;;;;97.67;72.00;;;;;-2.04;100.00;98032.63;6307104;20;3654475;-48
2024/01/15 05:16:08;;;;;;;;;104.33;73.67;;;;;-2.88;100.00;98028.63;6308807;20;3682523;-47
2024/01/15 05:18:38;;;;;;;;;102.00;75.33;;;;;-2.33;100.00;98027.59;6308539;20;3670063;-48
2024/01/15 05:21:08;;;;;;;;;109.33;81.00;;;;;-2.00;100.00;98039.50;6310264;20;3682561;-46
2024/01/15 05:23:38;;;;;;;;;99.00;69.00;;;;;-2.69;100.00;98033.25;6306468;20;3675294;-46
2024/01/15 05:26:08;;;;;;;;;101.00;70.00;;;;;-2.40;100.00;98031.38;6310450;20;3681493;-47
2024/01/15 05:28:38;;;;;;;;;101.67;75.33;;;;;-2.72;100.00;98038.63;6308370;20;2910783;-45
2024/01/15 05:31:08;;;;;;;;;103.67;79.00;;;;;-2.83;100.00;98030.25;6305135;20;3660664;-45
2024/01/15 05:33:38;;;;;;;;;101.33;74.33;;;;;-2.71;100.00;98030.69;6305019;20;3667966;-49
2024/01/15 05:36:08;;;;;;;;;108.67;82.33;;;;;-2.19;100.00;98033.22;6307620;20;3663224;-47
2024/01/15 05:38:38;;;;;;;;;114.00;81.33;;;;;-2.23;100.00;98042.13;6308905;20;3683605;-47
2024/01/15 05:41:08;;;;;;;;;110.67;92.33;;;;;-2.22;100.00;98039.44;6273158;20;3669015;-46
2024/01/15 05:43:37;;;;;;;;;103.33;73.33;;;;;-2.37;100.00;98045.28;6307482;20;3697123;-46
2024/01/15 05:46:07;;;;;;;;;110.67;78.33;;;;;-2.22;100.00;98043.84;6274464;20;3673174;-45
2024/01/15 05:48:37;;;;;;;;;94.67;65.33;;;;;-2.36;100.00;98040.88;6309415;20;3662831;-46
2024/01/15 05:51:07;;;;;;;;;98.00;75.67;;;;;-2.25;100.00;98043.97;6307631;20;3665871;-46
2024/01/15 05:53:40;;;;;;;;;102.00;76.00;;;;;-2.41;100.00;98037.53;6308431;20;3674225;-47
2024/01/15 05:56:11;;;;;;;;;94.00;71.33;;;;;-2.17;100.00;98039.28;6274629;20;3646116;-48
2024/01/15 05:58:40;;;;;;;;;96.67;71.33;;;;;-1.96;100.00;98048.13;6308117;20;3649214;-46
2024/01/15 06:01:10;;;;;;;;;94.67;71.33;;;;;-2.16;100.00;98053.25;6304438;20;3653411;-48
2024/01/15 06:03:40;;;;;;;;;98.67;75.00;;;;;-2.12;100.00;98054.88;6308318;20;2886761;-47
2024/01/15 06:06:10;;;;;;;;;102.67;75.67;;;;;-2.28;100.00;98042.28;6305795;20;3656549;-48
2024/01/15 06:08:40;;;;;;;;;99.33;69.33;;;;;-2.34;100.00;98033.75;6309881;20;3661775;-45
2024/01/15 06:11:09;;;;;;;;;101.67;75.00;;;;;-1.93;100.00;98042.75;6308224;20;3681529;-47
2024/01/15 06:13:39;;;;;;;;;101.67;74.00;;;;;-1.80;100.00;98037.88;6305690;20;3676302;-46
2024/01/15 06:16:22;;;;;;;;;108.33;78.00;;;;;-1.84;100.00;98049.47;6307097;20;3673198;-47
2024/01/15 06:18:52;;;;;;;;;98.33;73.33;;;;;-1.86;100.00;98056.53;6274291;20;3657620;-47
2024/01/15 06:21:22;;;;;;;;;108.33;73.00;;;;;-1.96;100.00;98055.16;6308960;20;3675301;-47
2024/01/15 06:23:51;;;;;;;;;103.67;72.33;;;;;-1.96;100.00;98053.41;6272226;20;3682503;-47
2024/01/15 06:26:21;;;;;;;;;104.00;75.33;;;;;-2.83;100.00;98046.88;6307393;20;3681737;-46
2024/01/15 06:28:51;;;;;;;;;100.33;74.67;;;;;-2.64;100.00;98033.94;6307568;20;3671117;-47
2024/01/15 06:31:20;;;;;;;;;104.33;72.67;;;;;-2.36;100.00;98031.22;6305120;20;3688598;-47
2024/01/15 06:33:50;;;;;;;;;90.33;64.00;;;;;-2.05;100.00;98030.94;6261979;20;3666991;-47
2024/01/15 06:36:20;;;;;;;;;104.67;77.33;;;;;-1.90;100.00;98039.16;6304200;20;3671072;-48
2024/01/15 06:38:50;;;;;;;;;94.33;64.67;;;;;-1.73;100.00;98035.91;6307978;20;3677349;-48
2024/01/15 06:41:20;;;;;;;;;111.67;82.00;;;;;-1.79;100.00;98039.59;6304375;20;3679447;-45
2024/01/15 06:43:49;;;;;;;;;108.33;78.00;;;;;-1.87;100.00;98039.03;6273246;20;3671170;-47
2024/01/15 06:46:25;;;;;;;;;98.33;70.00;;;;;-1.75;100.00;98048.25;6306154;20;3652365;-47
2024/01/15 06:48:55;;;;;;;;;117.67;95.00;;;;;-1.78;100.00;98044.81;6306040;20;3703384;-45
2024/01/15 06:51:25;;;;;;;;;98.33;70.00;;;;;-1.97;100.00;98043.81;6272612;20;3675272;-54
2024/01/15 06:53:54;;;;;;;;;107.33;78.00;;;;;-1.78;100.00;98050.06;6270697;20;3675316;-53
2024/01/15 06:56:24;;;;;;;;;93.33;66.00;;;;;-1.65;100.00;98042.56;6304330;20;3657538;-52
2024/01/15 06:58:54;;;;;;;;;106.67;77.67;;;;;-1.28;100.00;98049.00;6304644;20;3677340;-55
2024/01/15 07:01:24;;;;;;;;;107.33;75.00;;;;;-1.26;100.00;98056.81;6304256;20;3674208;-56
2024/01/15 07:03:54;;;;;;;;;105.00;77.33;;;;;-1.16;100.00;98058.16;6270409;20;3666946;-55
2024/01/15 07:06:23;;;;;;;;;106.67;79.00;;;;;-0.67;100.00;98056.16;6307199;20;3667959;-55
2024/01/15 07:08:53;;;;;;;;;102.67;77.33;;;;;-1.01;100.00;98057.56;6303409;20;3681500;-54
2024/01/15 07:11:23;;;;;;;;;117.33;88.00;;;;;-0.64;100.00;98058.66;6304216;20;3698211;-54
2024/01/15 07:13:53;;;;;;;;;113.00;80.00;;;;;-1.07;100.00;98056.97;6270878;20;3659688;-53
2024/01/15 07:16:22;;;;;;;;;118.00;96.67;;;;;-1.33;100.00;98045.69;6303471;20;3707581;-54
2024/01/15 07:19:06;;;;;;;;;130.00;101.33;;;;;-0.87;100.00;98049.06;6273786;20;3714897;-54
2024/01/15 07:21:36;;;;;;;;;117.00;88.67;;;;;-1.05;100.00;98052.47;6272708;20;3698191;-54
2024/01/15 07:24:06;;;;;;;;;120.67;98.67;;;;;-0.59;100.00;98053.19;6269699;20;3685690;-54
2024/01/15 07:26:35;;;;;;;;;106.67;80.00;;;;;-0.61;100.00;98055.03;6275034;20;3683652;-52
2024/01/15 07:29:05;;;;;;;;;128.67;104.67;;;;;-0.85;100.00;98054.28;6274417;20;3701305;-54
2024/01/15 07:31:35;;;;;;;;;114.00;88.33;;;;;-0.64;100.00;98053.38;6273584;20;3699308;-56
2024/01/15 07:34:05;;;;;;;;;112.33;88.33;;;;;-0.51;100.00;98056.34;6271233;20;3695027;-56
2024/01/15 07:36:35;;;;;;;;;109.67;85.00;;;;;-0.09;100.00;98063.28;6272809;20;3675239;-53
2024/01/15 07:39:05;;;;;;;;;106.00;85.00;;;;;-0.38;100.00;98057.53;6270931;20;3672111;-55
2024/01/15 07:41:35;;;;;;;;;112.00;87.67;;;;;-0.48;100.00;98050.94;6272769;20;3685147;-54
2024/01/15 07:44:05;;;;;;;;;111.00;85.00;;;;;-0.48;100.00;98057.06;6268550;20;3692965;-56
2024/01/15 07:46:34;;;;;;;;;106.67;76.33;;;;;-0.46;100.00;98049.09;6270670;20;3681492;-54
2024/01/15 07:49:05;;;;;;;;;98.33;74.00;;;;;-0.25;100.00;98058.69;6271319;20;3652434;-55
2024/01/15 07:51:35;;;;;;;;;102.67;76.00;;;;;-0.04;100.00;98071.88;6300236;20;3668032;-56
2024/01/15 07:54:05;;;;;;;;;117.67;94.33;;;;;-0.25;100.00;98074.53;6307359;20;3701290;-56
2024/01/15 07:56:40;;;;;;;;;115.00;95.00;;;;;-0.47;100.00;98074.59;6279261;20;3690898;-56
2024/01/15 07:59:09;;;;;;;;;106.00;84.33;;;;;-0.19;100.00;98076.03;6276575;20;3676456;-53
2024/01/15 08:01:39;;;;;;;;;108.33;75.67;;;;;0.08;100.00;98073.97;6276383;20;3681498;-54
2024/01/15 08:04:12;;;;;;;;;96.33;68.67;;;;;0.34;100.00;98085.09;6309296;20;2905859;-57
2024/01/15 08:06:42;;;;;;;;;99.33;72.67;;;;;0.37;100.00;98077.03;6308702;20;3662878;-56
2024/01/15 08:09:15;;;;;;;;;108.67;76.67;;;;;0.14;100.00;98076.31;6274690;20;3684662;-55
2024/01/15 08:11:45;;;;;;;;;100.33;73.33;;;;;0.22;100.00;98073.31;6275721;20;3657549;-55
2024/01/15 08:14:15;;;;;;;;;91.67;72.67;;;;;0.11;100.00;98076.44;6309522;20;3648248;-55
2024/01/15 08:16:44;;;;;;;;;107.33;84.67;;;;;0.42;100.00;98086.47;6306498;20;3683609;-56
2024/01/15 08:19:14;;;;;;;;;91.50;74.50;;;;;0.46;100.00;98089.81;6276854;20;2875294;-57
2024/01/15 08:21:44;;;;;;;;;106.33;84.00;;;;;0.75;100.00;98095.50;6274369;20;3684638;-56
2024/01/15 08:24:15;;;;;;;;;106.67;79.00;;;;;0.86;100.00;98104.63;6275251;20;3685733;-53
2024/01/15 08:26:45;;;;;;;;;95.67;74.00;;;;;0.72;100.00;98093.88;6277759;20;3650257;-56
2024/01/15 08:29:14;;;;;;;;;101.00;72.33;;;;;1.00;100.00;98101.34;6310799;20;3672156;-56
2024/01/15 08:31:44;;;;;;;;;102.00;76.00;;;;;1.04;100.00;98102.03;6275844;20;3683578;-54
2024/01/15 08:34:14;;;;;;;;;96.00;71.33;;;;;1.18;100.00;98109.28;6273235;20;3661764;-51
2024/01/15 08:36:44;;;;;;;;;101.33;74.00;;;;;1.42;100.00;98102.81;6306805;20;3679407;-54
2024/01/15 08:39:14;;;;;;;;;104.00;82.50;;;;;1.01;100.00;98086.34;6273225;20;3578368;-54
2024/01/15 08:41:43;;;;;;;;;94.33;70.67;;;;;1.65;100.00;98100.78;6307571;20;3659818;-43
2024/01/15 08:44:13;;;;;;;;;91.00;71.00;;;;;1.80;98.54;98092.06;6305801;20;3642987;-46
2024/01/15 08:46:43;;;;;;;;;96.33;71.67;;;;;1.95;99.99;98099.19;6309448;20;3662797;-42
2024/01/15 08:49:12;;;;;;;;;89.33;67.33;;;;;1.84;97.02;98101.53;6276845;20;3660715;-42
2024/01/15 08:51:42;;;;;;;;;88.33;68.33;;;;;1.88;95.99;98104.88;6307161;20;3638917;-42
2024/01/15 08:54:12;;;;;;;;;86.00;64.67;;;;;2.46;93.67;98106.25;6306032;20;3639431;-42
2024/01/15 08:56:41;;;;;;;;;89.00;64.33;;;;;2.36;94.64;98106.72;6308323;20;3654479;-44
2024/01/15 08:59:11;;;;;;;;;85.00;63.00;;;;;2.44;92.69;98119.56;6309225;20;3653440;-44
2024/01/15 09:01:40;;;;;;;;;92.67;71.33;;;;;2.83;92.44;98118.31;6308872;20;3652356;-41
2024/01/15 09:04:10;;;;;;;;;89.00;68.33;;;;;2.89;88.24;98114.47;6308661;20;3646165;-44
2024/01/15 09:06:40;;;;;;;;;73.67;53.00;;;;;2.73;84.83;98110.00;6309968;20;3639965;-44
2024/01/15 09:09:09;;;;;;;;;73.00;56.00;;;;;3.13;81.54;98118.38;6311132;20;2772153;-42
2024/01/15 09:11:38;;;;;;;;;74.67;53.00;;;;;3.42;82.91;98115.88;6310568;20;3652882;-44
2024/01/15 09:14:09;;;;;;;;;75.33;58.00;;;;;3.12;79.66;98114.03;6309481;20;3638779;-43
2024/01/15 09:16:38;;;;;;;;;77.67;57.33;;;;;3.38;77.67;98111.69;6308704;20;3637752;-42
2024/01/15 09:19:06;;;;;;;;;74.50;55.00;;;;;3.05;76.82;98117.97;6305282;20;2500283;-45
2024/01/15 09:21:38;;;;;;;;;78.33;59.00;;;;;3.20;76.04;98106.50;6279087;20;3646200;-42
2024/01/15 09:24:08;;;;;;;;;73.33;56.00;;;;;3.36;75.13;98110.94;6306690;20;3635649;-42
2024/01/15 09:26:38;;;;;;;;;69.00;54.00;;;;;3.31;73.21;98113.84;6309185;20;2868092;-41
2024/01/15 09:29:07;;;;;;;;;68.00;51.00;;;;;3.22;73.88;98109.06;6309704;20;2889954;-41
2024/01/15 09:31:36;;;;;;;;;69.00;55.00;;;;;3.29;73.45;98111.28;6308505;20;2878506;-45
2024/01/15 09:34:06;;;;;;;;;66.00;50.00;;;;;3.36;71.29;98113.56;6275208;20;3641924;-43
2024/01/15 09:36:42;;;;;;;;;73.33;55.00;;;;;3.71;69.94;98114.16;6311654;20;3643694;-42
2024/01/15 09:39:11;;;;;;;;;62.00;47.50;;;;;3.52;69.22;98106.44;6301560;20;2499747;-43
2024/01/15 09:41:40;;;;;;;;;59.00;45.00;;;;;3.70;68.84;98105.34;6280258;20;2857563;-41
2024/01/15 09:44:08;;;;;;;;;31.00;20.00;;;;;3.95;67.52;98093.28;6275807;20;2848203;-43
2024/01/15 09:46:38;;;;;;;;;60.67;46.33;;;;;4.27;67.35;98090.47;6275083;20;2870063;-42
2024/01/15 09:49:08;;;;;;;;;62.33;44.67;;;;;4.32;67.09;98083.06;6307325;20;2875378;-43
2024/01/15 09:51:40;;;;;;;;;57.00;44.00;;;;;4.28;65.67;98084.19;6307629;20;2885690;-42
2024/01/15 09:54:10;;;;;;;;;55.50;43.00;;;;;4.25;64.33;98079.94;6306350;20;2867355;-42
2024/01/15 09:56:40;;;;;;;;;56.00;41.33;;;;;4.28;62.17;98079.72;6277418;20;3631485;-42
2024/01/15 09:59:10;;;;;;;;;58.00;44.00;;;;;4.26;63.29;98072.81;6309870;20;2873267;-43
2024/01/15 10:01:41;;;;;;;;;56.50;44.00;;;;;4.37;62.46;98079.19;6306536;20;2871117;-44
2024/01/15 10:04:12;;;;;;;;;53.50;43.50;;;;;4.41;61.09;98077.16;6274222;20;2856533;-42
2024/01/15 10:06:47;;;;;;;;;44.50;41.00;;;;;4.57;61.76;98069.94;6275215;20;2468079;-42
2024/01/15 10:09:17;;;;;;;;;60.00;47.00;;;;;4.44;60.62;98071.66;6278305;20;2867981;-42
2024/01/15 10:11:47;;;;;;;;;67.00;53.33;;;;;4.66;60.05;98062.31;6273900;20;3614199;-44
2024/01/15 10:14:16;;;;;;;;;67.33;51.33;;;;;4.40;60.30;98056.88;6303583;20;2882621;-43
2024/01/15 10:16:45;;;;;;;;;65.00;48.00;;;;;4.47;59.47;98058.19;6307372;20;2884159;-43
2024/01/15 10:19:15;;;;;;;;;50.33;39.00;;;;;4.62;59.00;98057.22;6307770;20;2873287;-42
2024/01/15 10:21:46;;;;;;;;;48.67;39.33;;;;;4.62;59.54;98051.91;6310041;20;2877377;-44
2024/01/15 10:24:14;;;;;;;;;53.00;43.00;;;;;4.72;58.89;98051.31;6303008;20;2500403;-43
2024/01/15 10:26:44;;;;;;;;;53.00;40.50;;;;;4.65;58.89;98042.88;6277027;20;2851357;-42
2024/01/15 10:29:15;;;;;;;;;49.00;41.00;;;;;4.94;57.71;98035.66;6276267;20;2852546;-42
2024/01/15 10:31:45;;;;;;;;;56.33;42.00;;;;;4.53;58.54;98041.88;6278358;20;2881700;-43
2024/01/15 10:34:15;;;;;;;;;55.33;42.33;;;;;5.12;57.55;98036.28;6304840;20;2879907;-43
2024/01/15 10:36:47;;;;;;;;;42.00;34.33;;;;;4.99;57.66;98028.25;6309488;20;2874237;-42
2024/01/15 10:39:17;;;;;;;;;39.00;33.67;;;;;4.96;57.88;98031.09;6307962;20;2867056;-43
2024/01/15 10:41:46;;;;;;;;;28.00;28.00;;;;;5.10;56.83;98034.66;6306557;20;2848741;-42
2024/01/15 10:44:14;;;;;;;;;32.50;29.00;;;;;5.11;56.18;98025.72;6270437;20;2500357;-42
2024/01/15 10:46:45;;;;;;;;;34.50;31.50;;;;;5.25;56.28;98023.03;6275409;20;2853441;-42
2024/01/15 10:49:13;;;;;;;;;27.50;25.50;;;;;5.18;57.83;98019.91;6277767;20;2845121;-42
2024/01/15 10:51:43;;;;;;;;;30.50;27.00;;;;;4.92;56.69;98024.28;6277003;20;2847252;-43
2024/01/15 10:54:14;;;;;;;;;33.00;27.00;;;;;5.18;56.48;98017.25;6276529;20;2858651;-44
2024/01/15 10:56:43;;;;;;;;;35.00;29.00;;;;;5.30;55.71;98012.06;6275412;20;2848235;-44
2024/01/15 10:59:14;;;;;;;;;31.50;29.00;;;;;5.17;55.84;98009.38;6275166;20;2852389;-43
2024/01/15 11:01:44;;;;;;;;;39.00;28.00;;;;;5.41;55.23;98013.03;6276525;20;2852432;-44
2024/01/15 11:04:13;;;;;;;;;35.00;29.50;;;;;5.15;55.42;98008.63;6273701;20;2855628;-44
2024/01/15 11:06:47;;;;;;;;;34.50;28.50;;;;;5.52;55.37;98008.81;6276630;20;2843122;-42